Susquehanna — WDD9976 — position and weather

sailwx.info

Track history (hours):
 
Tides and Currents Weather Stations Pressure Air Temp Water Temp Dewpoint Dewpoint Depression Visibility Wind Speed Wind Dir Waves Ship Positions

Susquehanna

Owner: Vane Line Bunkering, Inc., Baltimore, MD. More information available from US FCC via Universal Licensing System and Coast Guard Vessel Documentation Center.

Last reported at 2015-May-23 06:33 UTC. Time now 2015-May-23 07:22 UTC.
Position N 39°54' W 075°12'.

Length 28 m; draft 4.2 m.

Type: Tug. MMSI: 367318750.

Date/timePositionNaut miles runAvg speedWind from/ knotsBaromVisibWave heightAir tempDewpointWater temp
2015-May-23 06:33N 39°54' W 075°12'0 0.0
2015-May-23 05:33N 39°54' W 075°12'0 0.0
2015-May-23 04:31N 39°54' W 075°12'0 0.0
2015-May-23 03:32N 39°54' W 075°12'0 0.0
2015-May-23 02:32N 39°54' W 075°12'0 0.0
2015-May-23 01:33N 39°54' W 075°12'0 0.0
2015-May-23 00:31N 39°54' W 075°12'6 6.1
2015-May-22 23:33N 39°51' W 075°19'5 4.5
2015-May-22 22:32N 39°49' W 075°24'7 2.0
2015-May-22 19:04N 39°43' W 075°30'45 4.3
2015-May-22 08:33N 39°01' W 075°09'8 8.0
2015-May-22 07:33N 38°53' W 075°04'7 6.9
2015-May-22 06:33N 38°48' W 074°58'6310.1
2015-May-22 00:17N 39°36' W 074°05'810.5
2015-May-21 23:33N 39°43' W 074°01'1010.4
2015-May-21 22:33N 39°53' W 073°58'2410.3
2015-May-21 20:15N 40°17' W 073°54'710.2
2015-May-21 19:33N 40°24' W 073°55'16 8.0
2015-May-21 17:33N 40°29' W 074°14'3 1.0
2015-May-21 14:28N 40°32' W 074°15'0 0.0
2015-May-21 09:24N 40°32' W 074°15'0 0.0
2015-May-21 00:31N 40°32' W 074°15'9 0.7
2015-May-20 11:10N 40°29' W 074°04'3 4.6
2015-May-20 10:32N 40°29' W 074°01'5 5.1
2015-May-20 09:33N 40°27' W 073°55'7 6.6
2015-May-20 08:28N 40°20' W 073°54'6 6.9
2015-May-20 07:33N 40°14' W 073°54'7 7.0
2015-May-20 06:29N 40°06' W 073°55'14 7.2
2015-May-20 04:32N 39°52' W 073°57'7 7.5
2015-May-20 03:33N 39°45' W 073°58'8 7.8
2015-May-20 02:33N 39°38' W 074°03'8 7.8
2015-May-20 01:33N 39°31' W 074°07'9 7.6
2015-May-20 00:24N 39°24' W 074°14'7 7.6
2015-May-19 23:29N 39°18' W 074°19'9 7.5
2015-May-19 22:21N 39°12' W 074°26'6 7.7
2015-May-19 21:33N 39°07' W 074°31'8 7.5
2015-May-19 20:29N 39°01' W 074°38'15 7.6
2015-May-19 18:28N 38°50' W 074°52'8 8.4
2015-May-19 17:33N 38°49' W 075°01'9 9.1
2015-May-19 16:33N 38°57' W 075°07'8 8.3
2015-May-19 15:33N 39°05' W 075°11'7 7.1
2015-May-19 14:33N 39°11' W 075°16'6 6.2
2015-May-19 13:33N 39°16' W 075°20'5 5.2
2015-May-19 12:33N 39°20' W 075°25'10 9.6
2015-May-19 11:33N 39°27' W 075°33'1010.4
2015-May-19 10:33N 39°37' W 075°35'1111.0
2015-May-19 09:33N 39°47' W 075°28'4 3.5
2015-May-19 08:32N 39°49' W 075°24'0 0.0
2015-May-19 07:33N 39°49' W 075°24'1 0.6
2015-May-19 06:31N 39°49' W 075°25'0 0.0
2015-May-19 05:32N 39°49' W 075°25'0 0.0
2015-May-19 04:33N 39°49' W 075°25'0 0.0
2015-May-19 03:33N 39°49' W 075°25'0 0.0
2015-May-19 02:31N 39°49' W 075°25'0 0.0
2015-May-19 01:32N 39°49' W 075°25'0 0.0
2015-May-19 00:32N 39°49' W 075°25'4 3.8
2015-May-18 23:33N 39°51' W 075°21'7 7.0
2015-May-18 22:31N 39°54' W 075°12'0 0.0
2015-May-18 21:32N 39°54' W 075°12'0 0.0
2015-May-18 20:33N 39°54' W 075°12'0 0.0
2015-May-18 19:33N 39°54' W 075°12'0 0.1
2015-May-18 18:31N 39°54' W 075°12'0 0.0
2015-May-18 17:32N 39°54' W 075°12'0 0.0
2015-May-18 16:32N 39°54' W 075°12'0 0.0
2015-May-18 15:33N 39°54' W 075°12'3 2.9
2015-May-18 14:34N 39°51' W 075°15'8 7.8
2015-May-18 13:34N 39°49' W 075°24'1 1.3
2015-May-18 12:32N 39°48' W 075°26'0 0.0
2015-May-18 11:33N 39°48' W 075°26'0 0.0
2015-May-18 10:31N 39°48' W 075°26'0 0.0
2015-May-18 09:31N 39°48' W 075°26'0 0.0
2015-May-18 08:32N 39°48' W 075°26'0 0.0
2015-May-18 07:33N 39°48' W 075°25'0 0.1
2015-May-18 06:33N 39°48' W 075°25'0 0.1
2015-May-18 05:31N 39°48' W 075°25'0 0.0
2015-May-18 04:32N 39°48' W 075°25'0 0.0
2015-May-18 03:32N 39°48' W 075°25'0 0.0
2015-May-18 02:33N 39°48' W 075°25'0 0.0
2015-May-18 01:31N 39°48' W 075°25'0 0.1
2015-May-18 00:31N 39°48' W 075°25'0 0.1
2015-May-17 23:32N 39°48' W 075°26'0 0.0
2015-May-17 22:33N 39°48' W 075°26'0 0.0
2015-May-17 21:33N 39°48' W 075°26'0 0.0
2015-May-17 20:33N 39°48' W 075°26'0 0.0
2015-May-17 19:33N 39°48' W 075°26'0 0.2
2015-May-17 18:33N 39°48' W 075°25'0 0.1
2015-May-17 17:33N 39°48' W 075°25'4 4.0
2015-May-17 16:33N 39°45' W 075°29'10 9.8
2015-May-17 15:33N 39°36' W 075°34'1010.2
2015-May-17 14:33N 39°26' W 075°32'1111.0
2015-May-17 13:33N 39°18' W 075°23'1110.9
2015-May-17 12:33N 39°09' W 075°14'1111.2
2015-May-17 11:33N 38°59' W 075°08'1111.0
2015-May-17 10:33N 38°49' W 075°02'10 9.9
2015-May-17 09:33N 38°51' W 074°49'4210.0
2015-May-17 05:20N 39°24' W 074°14'17 9.8
2015-May-17 03:33N 39°39' W 074°03'10 9.5
2015-May-17 02:33N 39°48' W 073°59'29 9.5
2015-May-16 23:33N 40°16' W 073°55'10 9.5
2015-May-16 22:27N 40°26' W 073°56'7 8.0
2015-May-16 21:33N 40°29' W 074°05'7 6.9
2015-May-16 20:33N 40°30' W 074°14'6 1.8
2015-May-16 17:13N 40°35' W 074°12'0 0.0
2015-May-16 16:15N 40°35' W 074°12'4 5.7
2015-May-16 15:33N 40°39' W 074°10'7 7.4
2015-May-16 14:34N 40°40' W 074°00'0 0.0
2015-May-16 13:33N 40°40' W 074°00'0 0.0
2015-May-16 12:31N 40°40' W 074°00'0 0.0
2015-May-16 11:28N 40°40' W 074°00'0 0.0
2015-May-16 10:32N 40°40' W 074°00'3 3.2
2015-May-16 09:33N 40°39' W 074°04'71347137.8
2015-May-16 08:34S 78°15' W 074°12'71312997.5
2015-May-16 06:11N 40°36' W 074°12'5 6.5
2015-May-16 05:22N 40°39' W 074°06'3 3.2
2015-May-16 04:33N 40°39' W 074°03'0 0.0
2015-May-16 03:31N 40°39' W 074°03'0 0.1
2015-May-16 02:31N 40°39' W 074°03'0 0.2
2015-May-16 01:32N 40°39' W 074°03'0 0.0
2015-May-16 00:30N 40°39' W 074°03'0 0.0
2015-May-15 23:33N 40°39' W 074°03'0 0.0
2015-May-15 22:31N 40°39' W 074°03'0 0.0
2015-May-15 21:33N 40°39' W 074°03'0 0.0
2015-May-15 20:33N 40°39' W 074°03'5 4.6
2015-May-15 19:33N 40°35' W 074°02'6 5.5
2015-May-15 18:33N 40°30' W 073°58'9 7.4
2015-May-15 17:16N 40°22' W 073°54'23 8.0
2015-May-15 14:27N 39°59' W 073°57'7 7.9
2015-May-15 13:32N 39°52' W 073°58'8 7.8
2015-May-15 12:33N 39°44' W 073°59'8 7.8
2015-May-15 11:33N 39°37' W 074°03'8 8.0
2015-May-15 10:33N 39°30' W 074°08'8 8.0
2015-May-15 09:32N 39°23' W 074°14'8 7.8
2015-May-15 08:31N 39°17' W 074°20'8 7.6
2015-May-15 07:29N 39°11' W 074°27'23 7.6
2015-May-15 04:25N 38°54' W 074°47'7 7.7
2015-May-15 03:32N 38°49' W 074°53'8 7.9
2015-May-15 02:33N 38°51' W 075°03'9 9.4
2015-May-15 01:33N 38°59' W 075°08'7 7.1
2015-May-15 00:33N 39°06' W 075°12'8 8.1
2015-May-14 23:33N 39°13' W 075°17'7 6.6
2015-May-14 22:33N 39°18' W 075°23'7 6.6
2015-May-14 21:33N 39°23' W 075°29'7 7.3
2015-May-14 20:33N 39°29' W 075°34'9 8.9
2015-May-14 19:33N 39°38' W 075°34'1010.2
2015-May-14 18:33N 39°47' W 075°28'4 3.5
2015-May-14 17:33N 39°49' W 075°24'6 5.7
2015-May-14 16:33N 39°51' W 075°17'5 4.5
2015-May-14 15:33N 39°54' W 075°12'0 0.0
2015-May-14 14:33N 39°54' W 075°12'0 0.0
2015-May-14 13:31N 39°54' W 075°12'0 0.0
2015-May-14 12:32N 39°54' W 075°12'0 0.0
2015-May-14 11:32N 39°54' W 075°12'0 0.0
2015-May-14 10:33N 39°54' W 075°12'0 0.0
2015-May-14 09:31N 39°54' W 075°12'0 0.0
2015-May-14 08:31N 39°54' W 075°12'0 0.0
2015-May-14 07:32N 39°54' W 075°12'0 0.0
2015-May-14 06:33N 39°54' W 075°12'0 0.0
2015-May-14 05:30N 39°54' W 075°12'0 0.0
2015-May-14 04:31N 39°54' W 075°12'0 0.0
2015-May-14 03:32N 39°54' W 075°12'0 0.0
2015-May-14 02:32N 39°54' W 075°12'0 0.0
2015-May-14 01:33N 39°54' W 075°12'2 2.1
2015-May-14 00:34N 39°52' W 075°13'9 8.7
2015-May-13 23:33N 39°49' W 075°24'1 0.8
2015-May-13 22:34N 39°48' W 075°25'1010.1
2015-May-13 21:33N 39°40' W 075°32'1010.2
2015-May-13 20:33N 39°30' W 075°34'1010.2
2015-May-13 19:33N 39°21' W 075°26'10 9.9
2015-May-13 18:33N 39°14' W 075°18'10 9.7
2015-May-13 17:33N 39°05' W 075°11'10 9.6
2015-May-13 16:33N 38°57' W 075°07'9 9.0
2015-May-13 15:33N 38°49' W 075°01'9 8.9
2015-May-13 14:33N 38°50' W 074°50'6010.0
2015-May-13 08:34N 39°39' W 074°05'1010.0
2015-May-13 07:33N 39°49' W 074°03'  
Track history (hours):
 
Tides and Currents Weather Stations Pressure Air Temp Water Temp Dewpoint Dewpoint Depression Visibility Wind Speed Wind Dir Waves Ship Positions

Susquehanna

Owner: Vane Line Bunkering, Inc., Baltimore, MD. More information available from US FCC via Universal Licensing System and Coast Guard Vessel Documentation Center.

Last reported at 2015-May-23 06:33 UTC. Time now 2015-May-23 07:22 UTC.
Position N 39°54' W 075°12'.

Length 28 m; draft 4.2 m.

Type: Tug. MMSI: 367318750.

Date/timePositionNaut miles runAvg speedWind from/ knotsBaromVisibWave heightAir tempDewpointWater temp
2015-May-23 06:33N 39°54' W 075°12'0 0.0
2015-May-23 05:33N 39°54' W 075°12'0 0.0
2015-May-23 04:31N 39°54' W 075°12'0 0.0
2015-May-23 03:32N 39°54' W 075°12'0 0.0
2015-May-23 02:32N 39°54' W 075°12'0 0.0
2015-May-23 01:33N 39°54' W 075°12'0 0.0
2015-May-23 00:31N 39°54' W 075°12'6 6.1
2015-May-22 23:33N 39°51' W 075°19'5 4.5
2015-May-22 22:32N 39°49' W 075°24'7 2.0
2015-May-22 19:04N 39°43' W 075°30'45 4.3
2015-May-22 08:33N 39°01' W 075°09'8 8.0
2015-May-22 07:33N 38°53' W 075°04'7 6.9
2015-May-22 06:33N 38°48' W 074°58'6310.1
2015-May-22 00:17N 39°36' W 074°05'810.5
2015-May-21 23:33N 39°43' W 074°01'1010.4
2015-May-21 22:33N 39°53' W 073°58'2410.3
2015-May-21 20:15N 40°17' W 073°54'710.2
2015-May-21 19:33N 40°24' W 073°55'16 8.0
2015-May-21 17:33N 40°29' W 074°14'3 1.0
2015-May-21 14:28N 40°32' W 074°15'0 0.0
2015-May-21 09:24N 40°32' W 074°15'0 0.0
2015-May-21 00:31N 40°32' W 074°15'9 0.7
2015-May-20 11:10N 40°29' W 074°04'3 4.6
2015-May-20 10:32N 40°29' W 074°01'5 5.1
2015-May-20 09:33N 40°27' W 073°55'7 6.6
2015-May-20 08:28N 40°20' W 073°54'6 6.9
2015-May-20 07:33N 40°14' W 073°54'7 7.0
2015-May-20 06:29N 40°06' W 073°55'14 7.2
2015-May-20 04:32N 39°52' W 073°57'7 7.5
2015-May-20 03:33N 39°45' W 073°58'8 7.8
2015-May-20 02:33N 39°38' W 074°03'8 7.8
2015-May-20 01:33N 39°31' W 074°07'9 7.6
2015-May-20 00:24N 39°24' W 074°14'7 7.6
2015-May-19 23:29N 39°18' W 074°19'9 7.5
2015-May-19 22:21N 39°12' W 074°26'6 7.7
2015-May-19 21:33N 39°07' W 074°31'8 7.5
2015-May-19 20:29N 39°01' W 074°38'15 7.6
2015-May-19 18:28N 38°50' W 074°52'8 8.4
2015-May-19 17:33N 38°49' W 075°01'9 9.1
2015-May-19 16:33N 38°57' W 075°07'8 8.3
2015-May-19 15:33N 39°05' W 075°11'7 7.1
2015-May-19 14:33N 39°11' W 075°16'6 6.2
2015-May-19 13:33N 39°16' W 075°20'5 5.2
2015-May-19 12:33N 39°20' W 075°25'10 9.6
2015-May-19 11:33N 39°27' W 075°33'1010.4
2015-May-19 10:33N 39°37' W 075°35'1111.0
2015-May-19 09:33N 39°47' W 075°28'4 3.5
2015-May-19 08:32N 39°49' W 075°24'0 0.0
2015-May-19 07:33N 39°49' W 075°24'1 0.6
2015-May-19 06:31N 39°49' W 075°25'0 0.0
2015-May-19 05:32N 39°49' W 075°25'0 0.0
2015-May-19 04:33N 39°49' W 075°25'0 0.0
2015-May-19 03:33N 39°49' W 075°25'0 0.0
2015-May-19 02:31N 39°49' W 075°25'0 0.0
2015-May-19 01:32N 39°49' W 075°25'0 0.0
2015-May-19 00:32N 39°49' W 075°25'4 3.8
2015-May-18 23:33N 39°51' W 075°21'7 7.0
2015-May-18 22:31N 39°54' W 075°12'0 0.0
2015-May-18 21:32N 39°54' W 075°12'0 0.0
2015-May-18 20:33N 39°54' W 075°12'0 0.0
2015-May-18 19:33N 39°54' W 075°12'0 0.1
2015-May-18 18:31N 39°54' W 075°12'0 0.0
2015-May-18 17:32N 39°54' W 075°12'0 0.0
2015-May-18 16:32N 39°54' W 075°12'0 0.0
2015-May-18 15:33N 39°54' W 075°12'3 2.9
2015-May-18 14:34N 39°51' W 075°15'8 7.8
2015-May-18 13:34N 39°49' W 075°24'1 1.3
2015-May-18 12:32N 39°48' W 075°26'0 0.0
2015-May-18 11:33N 39°48' W 075°26'0 0.0
2015-May-18 10:31N 39°48' W 075°26'0 0.0
2015-May-18 09:31N 39°48' W 075°26'0 0.0
2015-May-18 08:32N 39°48' W 075°26'0 0.0
2015-May-18 07:33N 39°48' W 075°25'0 0.1
2015-May-18 06:33N 39°48' W 075°25'0 0.1
2015-May-18 05:31N 39°48' W 075°25'0 0.0
2015-May-18 04:32N 39°48' W 075°25'0 0.0
2015-May-18 03:32N 39°48' W 075°25'0 0.0
2015-May-18 02:33N 39°48' W 075°25'0 0.0
2015-May-18 01:31N 39°48' W 075°25'0 0.1
2015-May-18 00:31N 39°48' W 075°25'0 0.1
2015-May-17 23:32N 39°48' W 075°26'0 0.0
2015-May-17 22:33N 39°48' W 075°26'0 0.0
2015-May-17 21:33N 39°48' W 075°26'0 0.0
2015-May-17 20:33N 39°48' W 075°26'0 0.0
2015-May-17 19:33N 39°48' W 075°26'0 0.2
2015-May-17 18:33N 39°48' W 075°25'0 0.1
2015-May-17 17:33N 39°48' W 075°25'4 4.0
2015-May-17 16:33N 39°45' W 075°29'10 9.8
2015-May-17 15:33N 39°36' W 075°34'1010.2
2015-May-17 14:33N 39°26' W 075°32'1111.0
2015-May-17 13:33N 39°18' W 075°23'1110.9
2015-May-17 12:33N 39°09' W 075°14'1111.2
2015-May-17 11:33N 38°59' W 075°08'1111.0
2015-May-17 10:33N 38°49' W 075°02'10 9.9
2015-May-17 09:33N 38°51' W 074°49'4210.0
2015-May-17 05:20N 39°24' W 074°14'17 9.8
2015-May-17 03:33N 39°39' W 074°03'10 9.5
2015-May-17 02:33N 39°48' W 073°59'29 9.5
2015-May-16 23:33N 40°16' W 073°55'10 9.5
2015-May-16 22:27N 40°26' W 073°56'7 8.0
2015-May-16 21:33N 40°29' W 074°05'7 6.9
2015-May-16 20:33N 40°30' W 074°14'6 1.8
2015-May-16 17:13N 40°35' W 074°12'0 0.0
2015-May-16 16:15N 40°35' W 074°12'4 5.7
2015-May-16 15:33N 40°39' W 074°10'7 7.4
2015-May-16 14:34N 40°40' W 074°00'0 0.0
2015-May-16 13:33N 40°40' W 074°00'0 0.0
2015-May-16 12:31N 40°40' W 074°00'0 0.0
2015-May-16 11:28N 40°40' W 074°00'0 0.0
2015-May-16 10:32N 40°40' W 074°00'3 3.2
2015-May-16 09:33N 40°39' W 074°04'71347137.8
2015-May-16 08:34S 78°15' W 074°12'71312997.5
2015-May-16 06:11N 40°36' W 074°12'5 6.5
2015-May-16 05:22N 40°39' W 074°06'3 3.2
2015-May-16 04:33N 40°39' W 074°03'0 0.0
2015-May-16 03:31N 40°39' W 074°03'0 0.1
2015-May-16 02:31N 40°39' W 074°03'0 0.2
2015-May-16 01:32N 40°39' W 074°03'0 0.0
2015-May-16 00:30N 40°39' W 074°03'0 0.0
2015-May-15 23:33N 40°39' W 074°03'0 0.0
2015-May-15 22:31N 40°39' W 074°03'0 0.0
2015-May-15 21:33N 40°39' W 074°03'0 0.0
2015-May-15 20:33N 40°39' W 074°03'5 4.6
2015-May-15 19:33N 40°35' W 074°02'6 5.5
2015-May-15 18:33N 40°30' W 073°58'9 7.4
2015-May-15 17:16N 40°22' W 073°54'23 8.0
2015-May-15 14:27N 39°59' W 073°57'7 7.9
2015-May-15 13:32N 39°52' W 073°58'8 7.8
2015-May-15 12:33N 39°44' W 073°59'8 7.8
2015-May-15 11:33N 39°37' W 074°03'8 8.0
2015-May-15 10:33N 39°30' W 074°08'8 8.0
2015-May-15 09:32N 39°23' W 074°14'8 7.8
2015-May-15 08:31N 39°17' W 074°20'8 7.6
2015-May-15 07:29N 39°11' W 074°27'23 7.6
2015-May-15 04:25N 38°54' W 074°47'7 7.7
2015-May-15 03:32N 38°49' W 074°53'8 7.9
2015-May-15 02:33N 38°51' W 075°03'9 9.4
2015-May-15 01:33N 38°59' W 075°08'7 7.1
2015-May-15 00:33N 39°06' W 075°12'8 8.1
2015-May-14 23:33N 39°13' W 075°17'7 6.6
2015-May-14 22:33N 39°18' W 075°23'7 6.6
2015-May-14 21:33N 39°23' W 075°29'7 7.3
2015-May-14 20:33N 39°29' W 075°34'9 8.9
2015-May-14 19:33N 39°38' W 075°34'1010.2
2015-May-14 18:33N 39°47' W 075°28'4 3.5
2015-May-14 17:33N 39°49' W 075°24'6 5.7
2015-May-14 16:33N 39°51' W 075°17'5 4.5
2015-May-14 15:33N 39°54' W 075°12'0 0.0
2015-May-14 14:33N 39°54' W 075°12'0 0.0
2015-May-14 13:31N 39°54' W 075°12'0 0.0
2015-May-14 12:32N 39°54' W 075°12'0 0.0
2015-May-14 11:32N 39°54' W 075°12'0 0.0
2015-May-14 10:33N 39°54' W 075°12'0 0.0
2015-May-14 09:31N 39°54' W 075°12'0 0.0
2015-May-14 08:31N 39°54' W 075°12'0 0.0
2015-May-14 07:32N 39°54' W 075°12'0 0.0
2015-May-14 06:33N 39°54' W 075°12'0 0.0
2015-May-14 05:30N 39°54' W 075°12'0 0.0
2015-May-14 04:31N 39°54' W 075°12'0 0.0
2015-May-14 03:32N 39°54' W 075°12'0 0.0
2015-May-14 02:32N 39°54' W 075°12'0 0.0
2015-May-14 01:33N 39°54' W 075°12'2 2.1
2015-May-14 00:34N 39°52' W 075°13'9 8.7
2015-May-13 23:33N 39°49' W 075°24'1 0.8
2015-May-13 22:34N 39°48' W 075°25'1010.1
2015-May-13 21:33N 39°40' W 075°32'1010.2
2015-May-13 20:33N 39°30' W 075°34'1010.2
2015-May-13 19:33N 39°21' W 075°26'10 9.9
2015-May-13 18:33N 39°14' W 075°18'10 9.7
2015-May-13 17:33N 39°05' W 075°11'10 9.6
2015-May-13 16:33N 38°57' W 075°07'9 9.0
2015-May-13 15:33N 38°49' W 075°01'9 8.9
2015-May-13 14:33N 38°50' W 074°50'6010.0
2015-May-13 08:34N 39°39' W 074°05'1010.0
2015-May-13 07:33N 39°49' W 074°03'  

Dump ship's entire track history